Historyczne dane pomiarowe

Dodano dane terminowe – wersja testowa.

Dane z okresu 1951-2019

Wersja bazy: 1.34 [2019-03-16, lista zmian], aktualizacja planowana na 2019-04-15

Dane meteo z obszaru Polski uzyskane na podstawie danych udostępnionych przez Instytut Meteorologii i Gospodarki Wodnej – Państwowy Instytut Badawczy.

 

Wybierz Datę:    

       

TemperaturaWilgotnośćWiatrCiśnienieOpadyŚniegCzas trwania zjawisk
 Stacja t tx tn tng RH VA  wxwx mslp ppp RRR   cm mm wxwxwxwxwxwxwx
1983-08-14 13.3 19.1 5.4 4.1 55.8- 2.3 1.0---- 0.0------------
1983-08-13 13.8 17.0 11.3 10.5 75.8- 5.0 4.3---- 1.3------------
1983-08-12 17.5 23.3 12.6 8.6 69.0- 5.0 5.0---- 8.3------------
1983-08-11 20.7 28.6 12.0 9.5 54.0- 3.0 1.3---- 0.0------------
1983-08-10 20.0 27.6 12.3 9.7 57.8- 1.3 2.0---- 0.0------------
1983-08-09 19.1 26.7 11.6 9.9 57.8- 2.3 1.7---- 0.0------------
1983-08-08 19.4 26.3 14.0 12.5 57.3- 4.0 2.0---- 0.0------------
1983-08-07 18.8 24.4 14.1 12.6 75.8- 6.7 3.3---- 0.0------------
1983-08-06 15.8 21.6 8.6 7.3 70.3- 3.0 1.3---- 0.0------------
1983-08-05 14.1 17.5 11.7 11.8 80.8- 5.3 1.7---- 0.1------------
1983-08-04 15.2 16.6 14.0 15.0 91.8- 8.0 2.0---- 2.2------------
1983-08-03 14.7 19.0 13.2 13.2 94.0- 8.0 3.0---- 38.1------------
1983-08-02 20.4 26.7 15.4 12.7 65.8- 5.3 2.7---- 6.2------------
1983-08-01 21.1 30.2 7.2 7.2 31.3- 0.3 6.0---- 0.0------------
1983-07-31 18.4 26.2 8.6 6.1 45.5- 2.0 1.3---- 0.0------------
1983-07-30 16.0 18.1 14.0 13.9 67.0- 5.3 5.3---- 0.0------------
1983-07-29 18.4 24.0 12.4 9.3 62.5- 7.0 5.3---- 0.4------------
1983-07-28 20.2 26.4 15.1 12.5 64.8- 5.7 4.0---- 0.0------------
1983-07-27 22.2 32.8 9.2 8.3 48.3- 4.0 1.3---- 0.0------------
1983-07-26 21.2 30.0 12.4 9.7 52.0- 1.3 1.0---- 0.0------------
1983-07-25 17.6 24.6 10.1 7.1 53.5- 1.3 2.0---- 0.0------------
1983-07-24 17.2 21.7 13.7 12.1 67.8- 5.3 1.3---- 1.6------------
1983-07-23 17.0 21.2 12.1 11.6 60.5- 7.0 4.7---- 0.0------------
1983-07-22 14.8 21.2 8.7 7.1 52.5- 7.3 2.3---- 1.8------------
1983-07-21 13.4 18.5 7.7 6.7 52.5- 3.0 5.0---- 0.0------------
1983-07-20 12.2 17.6 8.3 7.5 77.8- 4.3 4.0---- 2.5------------
1983-07-19 18.7 22.3 16.5 15.8 67.8- 6.3 4.7---- 0.7------------
1983-07-18 20.3 32.3 8.1 7.1 69.3- 3.7 3.0---- 22.8------------
1983-07-17 17.5 26.1 8.1 5.1 55.3- 0.7 1.3---- 0.0------------
1983-07-16 20.8 26.7 15.4 12.6 55.0- 2.7 3.7---- 0.0------------
1983-07-15 18.9 27.2 7.8 6.3 42.0- 0.0 3.0---- 0.0------------
1983-07-14 19.3 24.1 14.1 14.1 55.0- 1.3 2.3---- 0.0------------
1983-07-13 21.0 28.3 14.1 10.6 77.0- 4.0 2.0---- 9.2------------
1983-07-12 24.2 30.7 17.5 15.2 45.0- 5.0 4.3---- 0.0------------
1983-07-11 21.3 29.2 12.1 8.6 48.5- 6.0 3.3---- 0.0------------
1983-07-10 23.1 30.0 12.4 7.9 44.3- 1.7 3.3---- 0.0------------
1983-07-09 20.1 28.2 9.0 5.0 47.5- 3.7 2.0---- 0.0------------
1983-07-08 18.9 26.2 8.4 3.9 49.3- 0.0 3.0---- 0.0------------
1983-07-07 19.5 25.5 9.8 6.7 47.8- 0.0 3.3---- 0.0------------
1983-07-06 20.4 29.0 8.9 7.3 50.5- 0.7 1.3---- 0.0------------
1983-07-05 18.1 25.5 6.9 4.6 53.8- 2.3 2.3---- 0.0------------
1983-07-04 17.4 22.2 10.1 7.3 58.0- 3.3 2.7---- 0.0------------
1983-07-03 17.6 24.1 8.5 5.5 56.0- 4.3 1.3---- 0.0------------
1983-07-02 16.8 23.1 11.4 10.3 59.3- 2.7 1.7---- 0.0------------
1983-07-01 19.3 26.8 9.6 4.5 63.5- 5.0 3.0---- 2.3------------
1983-06-30 19.4 24.1 12.0 7.5 54.5- 5.3 3.7---- 0.0------------
1983-06-29 13.3 19.1 7.4 2.0 67.0- 8.0 3.0---- 0.0------------
1983-06-28 13.4 18.2 11.3 5.1 80.3- 7.7 2.7---- 1.4------------
1983-06-27 15.8 23.5 9.4 3.9 83.5- 7.7 1.0---- 3.4------------
1983-06-26 16.3 23.5 6.1 1.9 64.3- 1.3 2.3---- 1.0------------
1983-06-25 17.9 24.8 7.5 1.6 58.8- 3.0 2.0---- 9.3------------
1983-06-24 18.6 28.2 3.7 1.3 46.0- 0.0 1.7---- 0.0------------
1983-06-23 15.5 24.6 1.0 -2.9 50.3- 0.0 1.3---- 0.0------------
1983-06-22 13.6 19.6 5.2 1.9 52.0- 0.0 2.0---- 0.0------------
1983-06-21 16.1 24.7 7.7 1.9 59.5- 0.0 4.3---- 0.0------------
1983-06-20 18.3 25.7 8.2 3.7 49.5- 0.7 2.3---- 0.0------------
1983-06-19 14.9 20.7 8.6 4.1 59.5- 2.3 4.7---- 0.0------------
1983-06-18 11.5 16.1 5.6 4.7 86.5- 8.0 2.7---- 0.0------------
1983-06-17 14.2 20.0 6.5 2.9 70.8- 7.7 3.3---- 0.0------------
1983-06-16 13.7 17.6 10.3 5.0 64.5- 5.0 3.7---- 0.0------------
534.3 ms

 

Źródłem pochodzenia danych jest Instytut Meteorologii i Gospodarki Wodnej – Państwowy Instytut Badawczy. Dane Instytutu Meteorologii i Gospodarki Wodnej – Państwowego Instytutu Badawczego zostały przetworzone.

Dane źródłowe można odnaleźć na stronie https://dane.imgw.pl